sensor_id;sensor_type;location;lat;lon;timestamp;pressure;altitude;pressure_sealevel;temperature;humidity
71970;BME280;59838;52.152;5.436;2024-02-04T00:02:09;102392.09;;;9.75;100.00
71970;BME280;59838;52.152;5.436;2024-02-04T00:04:40;102392.22;;;9.73;100.00
71970;BME280;59838;52.152;5.436;2024-02-04T00:07:07;102388.81;;;9.73;100.00
71970;BME280;59838;52.152;5.436;2024-02-04T00:09:33;102397.56;;;9.72;100.00
71970;BME280;59838;52.152;5.436;2024-02-04T00:12:02;102402.75;;;9.72;100.00
71970;BME280;59838;52.152;5.436;2024-02-04T00:14:30;102401.13;;;9.70;100.00
71970;BME280;59838;52.152;5.436;2024-02-04T00:16:57;102384.84;;;9.68;100.00
71970;BME280;59838;52.152;5.436;2024-02-04T00:19:23;102388.44;;;9.67;100.00
71970;BME280;59838;52.152;5.436;2024-02-04T00:21:50;102380.78;;;9.66;100.00
71970;BME280;59838;52.152;5.436;2024-02-04T00:24:17;102386.91;;;9.65;100.00
71970;BME280;59838;52.152;5.436;2024-02-04T00:26:45;102386.91;;;9.65;100.00
71970;BME280;59838;52.152;5.436;2024-02-04T00:29:12;102388.03;;;9.62;100.00
71970;BME280;59838;52.152;5.436;2024-02-04T00:31:38;102387.31;;;9.60;100.00
71970;BME280;59838;52.152;5.436;2024-02-04T00:34:05;102386.66;;;9.58;100.00
71970;BME280;59838;52.152;5.436;2024-02-04T00:36:31;102385.00;;;9.57;100.00
71970;BME280;59838;52.152;5.436;2024-02-04T00:38:58;102383.38;;;9.56;100.00
71970;BME280;59838;52.152;5.436;2024-02-04T00:41:24;102393.91;;;9.55;100.00
71970;BME280;59838;52.152;5.436;2024-02-04T00:43:51;102386.25;;;9.53;100.00
71970;BME280;59838;52.152;5.436;2024-02-04T00:46:18;102379.28;;;9.54;100.00
71970;BME280;59838;52.152;5.436;2024-02-04T00:48:45;102386.25;;;9.53;100.00
71970;BME280;59838;52.152;5.436;2024-02-04T00:51:12;102374.34;;;9.50;100.00
71970;BME280;59838;52.152;5.436;2024-02-04T00:53:40;102376.13;;;9.50;100.00
71970;BME280;59838;52.152;5.436;2024-02-04T00:56:06;102369.31;;;9.49;100.00
71970;BME280;59838;52.152;5.436;2024-02-04T00:58:33;102376.28;;;9.48;100.00
71970;BME280;59838;52.152;5.436;2024-02-04T01:00:59;102374.63;;;9.47;100.00
71970;BME280;59838;52.152;5.436;2024-02-04T01:03:26;102367.81;;;9.46;100.00
71970;BME280;59838;52.152;5.436;2024-02-04T01:05:53;102371.22;;;9.47;100.00
71970;BME280;59838;52.152;5.436;2024-02-04T01:08:19;102368.78;;;9.45;100.00
71970;BME280;59838;52.152;5.436;2024-02-04T01:10:46;102370.56;;;9.45;100.00
71970;BME280;59838;52.152;5.436;2024-02-04T01:13:13;102368.91;;;9.44;100.00
71970;BME280;59838;52.152;5.436;2024-02-04T01:15:40;102368.09;;;9.43;100.00
71970;BME280;59838;52.152;5.436;2024-02-04T01:18:07;102362.09;;;9.43;100.00
71970;BME280;59838;52.152;5.436;2024-02-04T01:20:34;102360.44;;;9.42;100.00
71970;BME280;59838;52.152;5.436;2024-02-04T01:23:00;102359.63;;;9.41;100.00
71970;BME280;59838;52.152;5.436;2024-02-04T01:25:27;102359.63;;;9.41;100.00
71970;BME280;59838;52.152;5.436;2024-02-04T01:27:53;102360.44;;;9.42;100.00
71970;BME280;59838;52.152;5.436;2024-02-04T01:30:20;102364.69;;;9.43;100.00
71970;BME280;59838;52.152;5.436;2024-02-04T01:32:46;102370.81;;;9.42;100.00
71970;BME280;59838;52.152;5.436;2024-02-04T01:35:13;102371.63;;;9.42;100.00
71970;BME280;59838;52.152;5.436;2024-02-04T01:37:41;102377.78;;;9.41;100.00
71970;BME280;59838;52.152;5.436;2024-02-04T01:40:10;102370.16;;;9.40;100.00
71970;BME280;59838;52.152;5.436;2024-02-04T01:42:36;102366.84;;;9.38;100.00
71970;BME280;59838;52.152;5.436;2024-02-04T01:45:03;102375.75;;;9.35;100.00
71970;BME280;59838;52.152;5.436;2024-02-04T01:47:30;102368.38;;;9.30;100.00
71970;BME280;59838;52.152;5.436;2024-02-04T01:49:56;102365.50;;;9.24;100.00
71970;BME280;59838;52.152;5.436;2024-02-04T01:52:23;102371.09;;;9.19;100.00
71970;BME280;59838;52.152;5.436;2024-02-04T01:54:50;102370.41;;;9.17;100.00
71970;BME280;59838;52.152;5.436;2024-02-04T01:57:17;102374.75;;;9.17;100.00
71970;BME280;59838;52.152;5.436;2024-02-04T01:59:44;102379.25;;;9.14;100.00
71970;BME280;59838;52.152;5.436;2024-02-04T02:02:11;102370.00;;;9.12;100.00
71970;BME280;59838;52.152;5.436;2024-02-04T02:04:38;102370.00;;;9.12;100.00
71970;BME280;59838;52.152;5.436;2024-02-04T02:07:04;102373.66;;;9.09;100.00
71970;BME280;59838;52.152;5.436;2024-02-04T02:09:34;102373.81;;;9.08;100.00
71970;BME280;59838;52.152;5.436;2024-02-04T02:12:08;102376.53;;;9.06;100.00
71970;BME280;59838;52.152;5.436;2024-02-04T02:14:40;102382.53;;;9.07;100.00
71970;BME280;59838;52.152;5.436;2024-02-04T02:17:11;102386.91;;;9.06;100.00
71970;BME280;59838;52.152;5.436;2024-02-04T02:19:57;102385.38;;;9.04;100.00
71970;BME280;59838;52.152;5.436;2024-02-04T02:22:29;102375.84;;;9.04;100.00
71970;BME280;59838;52.152;5.436;2024-02-04T02:24:58;102373.41;;;9.03;100.00
71970;BME280;59838;52.152;5.436;2024-02-04T02:27:28;102368.22;;;9.03;100.00
71970;BME280;59838;52.152;5.436;2024-02-04T02:29:54;102365.63;;;9.03;100.00
71970;BME280;59838;52.152;5.436;2024-02-04T02:32:21;102361.25;;;9.03;100.00
71970;BME280;59838;52.152;5.436;2024-02-04T02:34:48;102356.88;;;9.04;100.00
71970;BME280;59838;52.152;5.436;2024-02-04T02:40:48;102353.84;;;8.99;100.00
71970;BME280;59838;52.152;5.436;2024-02-04T02:43:16;102350.84;;;8.93;100.00
71970;BME280;59838;52.152;5.436;2024-02-04T02:45:43;102356.84;;;8.94;100.00
71970;BME280;59838;52.152;5.436;2024-02-04T02:48:11;102361.34;;;8.92;100.00
71970;BME280;59838;52.152;5.436;2024-02-04T02:50:38;102357.97;;;8.91;100.00
71970;BME280;59838;52.152;5.436;2024-02-04T02:53:05;102365.72;;;8.91;100.00
71970;BME280;59838;52.152;5.436;2024-02-04T02:55:32;102372.53;;;8.92;100.00
71970;BME280;59838;52.152;5.436;2024-02-04T02:57:58;102363.13;;;8.91;100.00
71970;BME280;59838;52.152;5.436;2024-02-04T03:00:25;102364.09;;;8.90;100.00
71970;BME280;59838;52.152;5.436;2024-02-04T03:02:51;102358.22;;;8.88;100.00
71970;BME280;59838;52.152;5.436;2024-02-04T03:05:18;102353.84;;;8.89;100.00
71970;BME280;59838;52.152;5.436;2024-02-04T03:07:45;102351.38;;;8.87;100.00
71970;BME280;59838;52.152;5.436;2024-02-04T03:10:11;102348.00;;;8.87;100.00
71970;BME280;59838;52.152;5.436;2024-02-04T03:12:38;102360.13;;;8.86;100.00
71970;BME280;59838;52.152;5.436;2024-02-04T03:15:05;102356.69;;;8.86;100.00
71970;BME280;59838;52.152;5.436;2024-02-04T03:17:31;102357.53;;;8.86;100.00
71970;BME280;59838;52.152;5.436;2024-02-04T03:19:58;102367.06;;;8.86;100.00
71970;BME280;59838;52.152;5.436;2024-02-04T03:22:24;102357.53;;;8.86;100.00
71970;BME280;59838;52.152;5.436;2024-02-04T03:24:52;102363.00;;;8.83;100.00
71970;BME280;59838;52.152;5.436;2024-02-04T03:27:19;102355.47;;;8.80;100.00
71970;BME280;59838;52.152;5.436;2024-02-04T03:29:45;102359.13;;;8.77;100.00
71970;BME280;59838;52.152;5.436;2024-02-04T03:32:12;102354.09;;;8.76;100.00
71970;BME280;59838;52.152;5.436;2024-02-04T03:34:41;102356.69;;;8.76;100.00
71970;BME280;59838;52.152;5.436;2024-02-04T03:37:07;102347.28;;;8.75;100.00
71970;BME280;59838;52.152;5.436;2024-02-04T03:39:34;102341.13;;;8.76;100.00
71970;BME280;59838;52.152;5.436;2024-02-04T03:42:01;102349.16;;;8.73;100.00
71970;BME280;59838;52.152;5.436;2024-02-04T03:44:27;102351.91;;;8.71;100.00
71970;BME280;59838;52.152;5.436;2024-02-04T03:46:54;102358.19;;;8.69;100.00
71970;BME280;59838;52.152;5.436;2024-02-04T03:49:21;102360.09;;;8.67;100.00
71970;BME280;59838;52.152;5.436;2024-02-04T03:51:47;102368.00;;;8.65;100.00
71970;BME280;59838;52.152;5.436;2024-02-04T03:54:14;102379.16;;;8.66;100.00
71970;BME280;59838;52.152;5.436;2024-02-04T03:56:41;102377.50;;;8.65;100.00
71970;BME280;59838;52.152;5.436;2024-02-04T03:59:08;102380.22;;;8.63;100.00
71970;BME280;59838;52.152;5.436;2024-02-04T04:01:37;102375.19;;;8.62;100.00
71970;BME280;59838;52.152;5.436;2024-02-04T04:04:04;102376.16;;;8.60;100.00
71970;BME280;59838;52.152;5.436;2024-02-04T04:06:30;102363.34;;;8.59;100.00
71970;BME280;59838;52.152;5.436;2024-02-04T04:08:57;102360.88;;;8.57;100.00
71970;BME280;59838;52.152;5.436;2024-02-04T04:11:25;102372.16;;;8.56;100.00
71970;BME280;59838;52.152;5.436;2024-02-04T04:13:52;102374.09;;;8.54;100.00
71970;BME280;59838;52.152;5.436;2024-02-04T04:16:20;102366.56;;;8.51;100.00
71970;BME280;59838;52.152;5.436;2024-02-04T04:18:47;102350.22;;;8.51;100.00
71970;BME280;59838;52.152;5.436;2024-02-04T04:21:15;102348.44;;;8.51;100.00
71970;BME280;59838;52.152;5.436;2024-02-04T04:23:41;102345.03;;;8.51;100.00
71970;BME280;59838;52.152;5.436;2024-02-04T04:26:08;102339.84;;;8.51;100.00
71970;BME280;59838;52.152;5.436;2024-02-04T04:28:34;102344.19;;;8.50;100.00
71970;BME280;59838;52.152;5.436;2024-02-04T04:31:01;102344.50;;;8.47;100.00
71970;BME280;59838;52.152;5.436;2024-02-04T04:33:27;102346.91;;;8.49;100.00
71970;BME280;59838;52.152;5.436;2024-02-04T04:35:54;102348.69;;;8.48;100.00
71970;BME280;59838;52.152;5.436;2024-02-04T04:38:20;102346.25;;;8.47;100.00
71970;BME280;59838;52.152;5.436;2024-02-04T04:40:47;102345.44;;;8.46;100.00
71970;BME280;59838;52.152;5.436;2024-02-04T04:43:13;102343.78;;;8.45;100.00
71970;BME280;59838;52.152;5.436;2024-02-04T04:45:40;102348.97;;;8.45;100.00
71970;BME280;59838;52.152;5.436;2024-02-04T04:48:07;102332.59;;;8.45;100.00
71970;BME280;59838;52.152;5.436;2024-02-04T04:50:38;102334.38;;;8.44;100.00
71970;BME280;59838;52.152;5.436;2024-02-04T04:53:04;102331.91;;;8.42;100.00
71970;BME280;59838;52.152;5.436;2024-02-04T04:55:30;102321.66;;;8.41;100.00
71970;BME280;59838;52.152;5.436;2024-02-04T04:57:57;102315.66;;;8.40;100.00
71970;BME280;59838;52.152;5.436;2024-02-04T05:00:23;102308.72;;;8.41;100.00
71970;BME280;59838;52.152;5.436;2024-02-04T05:02:50;102308.00;;;8.39;100.00
71970;BME280;59838;52.152;5.436;2024-02-04T05:05:17;102301.09;;;8.39;100.00
71970;BME280;59838;52.152;5.436;2024-02-04T05:07:43;102305.41;;;8.39;100.00
71970;BME280;59838;52.152;5.436;2024-02-04T05:10:10;102314.03;;;8.39;100.00
71970;BME280;59838;52.152;5.436;2024-02-04T05:12:37;102305.56;;;8.37;100.00
71970;BME280;59838;52.152;5.436;2024-02-04T05:15:05;102300.53;;;8.36;100.00
71970;BME280;59838;52.152;5.436;2024-02-04T05:17:31;102314.41;;;8.35;100.00
71970;BME280;59838;52.152;5.436;2024-02-04T05:20:00;102305.13;;;8.32;100.00
71970;BME280;59838;52.152;5.436;2024-02-04T05:22:26;102302.66;;;8.31;100.00
71970;BME280;59838;52.152;5.436;2024-02-04T05:24:53;102311.28;;;8.31;100.00
71970;BME280;59838;52.152;5.436;2024-02-04T05:27:19;102313.88;;;8.31;100.00
71970;BME280;59838;52.152;5.436;2024-02-04T05:29:46;102311.16;;;8.33;100.00
71970;BME280;59838;52.152;5.436;2024-02-04T05:32:12;102313.88;;;8.31;100.00
71970;BME280;59838;52.152;5.436;2024-02-04T05:34:39;102314.81;;;8.30;100.00
71970;BME280;59838;52.152;5.436;2024-02-04T05:37:05;102310.56;;;8.29;100.00
71970;BME280;59838;52.152;5.436;2024-02-04T05:39:32;102298.34;;;8.31;100.00
71970;BME280;59838;52.152;5.436;2024-02-04T05:41:59;102296.81;;;8.29;100.00
71970;BME280;59838;52.152;5.436;2024-02-04T05:44:25;102284.81;;;8.28;100.00
71970;BME280;59838;52.152;5.436;2024-02-04T05:46:52;102274.31;;;8.29;100.00
71970;BME280;59838;52.152;5.436;2024-02-04T05:49:18;102283.06;;;8.28;100.00
71970;BME280;59838;52.152;5.436;2024-02-04T05:51:45;102293.53;;;8.27;100.00
71970;BME280;59838;52.152;5.436;2024-02-04T05:54:12;102296.94;;;8.27;100.00
71970;BME280;59838;52.152;5.436;2024-02-04T05:56:38;102301.31;;;8.27;100.00
71970;BME280;59838;52.152;5.436;2024-02-04T05:59:05;102294.34;;;8.27;100.00
71970;BME280;59838;52.152;5.436;2024-02-04T06:01:31;102294.34;;;8.27;100.00
71970;BME280;59838;52.152;5.436;2024-02-04T06:03:59;102296.94;;;8.27;100.00
71970;BME280;59838;52.152;5.436;2024-02-04T06:06:25;102284.81;;;8.28;100.00
71970;BME280;59838;52.152;5.436;2024-02-04T06:08:52;102266.84;;;8.26;100.00
71970;BME280;59838;52.152;5.436;2024-02-04T06:11:19;102264.25;;;8.26;100.00
71970;BME280;59838;52.152;5.436;2024-02-04T06:13:45;102269.56;;;8.24;100.00
71970;BME280;59838;52.152;5.436;2024-02-04T06:16:12;102263.41;;;8.26;100.00
71970;BME280;59838;52.152;5.436;2024-02-04T06:18:39;102271.19;;;8.26;100.00
71970;BME280;59838;52.152;5.436;2024-02-04T06:21:06;102263.41;;;8.26;100.00
71970;BME280;59838;52.152;5.436;2024-02-04T06:23:33;102265.88;;;8.27;100.00
71970;BME280;59838;52.152;5.436;2024-02-04T06:26:00;102254.44;;;8.30;100.00
71970;BME280;59838;52.152;5.436;2024-02-04T06:28:27;102259.50;;;8.31;100.00
71970;BME280;59838;52.152;5.436;2024-02-04T06:30:54;102256.91;;;8.31;100.00
71970;BME280;59838;52.152;5.436;2024-02-04T06:33:21;102247.47;;;8.30;100.00
71970;BME280;59838;52.152;5.436;2024-02-04T06:35:48;102239.72;;;8.30;100.00
71970;BME280;59838;52.152;5.436;2024-02-04T06:38:15;102237.13;;;8.30;100.00
71970;BME280;59838;52.152;5.436;2024-02-04T06:40:41;102250.88;;;8.31;100.00
71970;BME280;59838;52.152;5.436;2024-02-04T06:43:08;102250.88;;;8.31;100.00
71970;BME280;59838;52.152;5.436;2024-02-04T06:45:34;102250.75;;;8.32;100.00
71970;BME280;59838;52.152;5.436;2024-02-04T06:48:01;102242.03;;;8.33;100.00
71970;BME280;59838;52.152;5.436;2024-02-04T06:50:29;102247.09;;;8.35;100.00
71970;BME280;59838;52.152;5.436;2024-02-04T06:52:55;102246.97;;;8.36;100.00
71970;BME280;59838;52.152;5.436;2024-02-04T06:55:22;102242.31;;;8.40;100.00
71970;BME280;59838;52.152;5.436;2024-02-04T06:57:48;102254.78;;;8.46;100.00
71970;BME280;59838;52.152;5.436;2024-02-04T07:00:15;102264.63;;;8.52;100.00
71970;BME280;59838;52.152;5.436;2024-02-04T07:02:42;102247.97;;;8.55;100.00
71970;BME280;59838;52.152;5.436;2024-02-04T07:05:08;102244.03;;;8.60;100.00
71970;BME280;59838;52.152;5.436;2024-02-04T07:07:37;102244.72;;;8.63;100.00
71970;BME280;59838;52.152;5.436;2024-02-04T07:10:04;102239.25;;;8.66;100.00
71970;BME280;59838;52.152;5.436;2024-02-04T07:12:31;102235.59;;;8.68;100.00
71970;BME280;59838;52.152;5.436;2024-02-04T07:14:57;102220.84;;;8.69;100.00
71970;BME280;59838;52.152;5.436;2024-02-04T07:17:25;102233.94;;;8.67;100.00
71970;BME280;59838;52.152;5.436;2024-02-04T07:19:51;102221.13;;;8.66;100.00
71970;BME280;59838;52.152;5.436;2024-02-04T07:22:18;102230.81;;;8.64;100.00
71970;BME280;59838;52.152;5.436;2024-02-04T07:24:44;102223.72;;;8.66;100.00
71970;BME280;59838;52.152;5.436;2024-02-04T07:27:11;102228.63;;;8.69;100.00
71970;BME280;59838;52.152;5.436;2024-02-04T07:29:37;102214.44;;;8.73;100.00
71970;BME280;59838;52.152;5.436;2024-02-04T07:32:04;102224.53;;;8.76;100.00
71970;BME280;59838;52.152;5.436;2024-02-04T07:34:30;102211.44;;;8.77;100.00
71970;BME280;59838;52.152;5.436;2024-02-04T07:36:57;102216.22;;;8.82;100.00
71970;BME280;59838;52.152;5.436;2024-02-04T07:39:23;102233.16;;;8.86;100.00
71970;BME280;59838;52.152;5.436;2024-02-04T07:41:50;102236.53;;;8.87;100.00
71970;BME280;59838;52.152;5.436;2024-02-04T07:44:16;102232.88;;;8.89;100.00
71970;BME280;59838;52.152;5.436;2024-02-04T07:46:43;102237.09;;;8.90;100.00
71970;BME280;59838;52.152;5.436;2024-02-04T07:49:09;102240.34;;;8.92;100.00
71970;BME280;59838;52.152;5.436;2024-02-04T07:51:36;102242.00;;;8.93;100.00
71970;BME280;59838;52.152;5.436;2024-02-04T07:54:04;102240.78;;;8.98;100.00
71970;BME280;59838;52.152;5.436;2024-02-04T07:56:30;102237.22;;;8.99;100.00
71970;BME280;59838;52.152;5.436;2024-02-04T07:58:57;102234.50;;;9.00;100.00
71970;BME280;59838;52.152;5.436;2024-02-04T08:01:23;102221.66;;;8.99;100.00
71970;BME280;59838;52.152;5.436;2024-02-04T08:03:50;102231.75;;;9.02;100.00
71970;BME280;59838;52.152;5.436;2024-02-04T08:06:17;102230.81;;;9.03;100.00
71970;BME280;59838;52.152;5.436;2024-02-04T08:08:44;102233.41;;;9.03;100.00
71970;BME280;59838;52.152;5.436;2024-02-04T08:11:18;102230.00;;;9.02;100.00
71970;BME280;59838;52.152;5.436;2024-02-04T08:13:45;102226.31;;;9.05;100.00
71970;BME280;59838;52.152;5.436;2024-02-04T08:16:12;102221.66;;;9.08;100.00
71970;BME280;59838;52.152;5.436;2024-02-04T08:18:39;102228.47;;;9.09;100.00
71970;BME280;59838;52.152;5.436;2024-02-04T08:21:06;102227.53;;;9.10;100.00
71970;BME280;59838;52.152;5.436;2024-02-04T08:23:32;102230.00;;;9.12;100.00
71970;BME280;59838;52.152;5.436;2024-02-04T08:25:59;102223.16;;;9.11;100.00
71970;BME280;59838;52.152;5.436;2024-02-04T08:28:26;102218.91;;;9.10;100.00
71970;BME280;59838;52.152;5.436;2024-02-04T08:30:52;102221.25;;;9.13;100.00
71970;BME280;59838;52.152;5.436;2024-02-04T08:33:19;102217.69;;;9.14;100.00
71970;BME280;59838;52.152;5.436;2024-02-04T08:35:46;102229.69;;;9.15;100.00
71970;BME280;59838;52.152;5.436;2024-02-04T08:38:12;102222.75;;;9.15;100.00
71970;BME280;59838;52.152;5.436;2024-02-04T08:40:39;102220.97;;;9.16;100.00
71970;BME280;59838;52.152;5.436;2024-02-04T08:43:05;102214.00;;;9.17;100.00
71970;BME280;59838;52.152;5.436;2024-02-04T08:45:32;102211.25;;;9.18;100.00
71970;BME280;59838;52.152;5.436;2024-02-04T08:47:59;102206.09;;;9.18;100.00
71970;BME280;59838;52.152;5.436;2024-02-04T08:50:25;102199.13;;;9.19;100.00
71970;BME280;59838;52.152;5.436;2024-02-04T08:52:52;102199.94;;;9.19;100.00
71970;BME280;59838;52.152;5.436;2024-02-04T08:55:18;102199.94;;;9.19;100.00
71970;BME280;59838;52.152;5.436;2024-02-04T08:57:45;102203.06;;;9.23;100.00
71970;BME280;59838;52.152;5.436;2024-02-04T09:00:15;102204.06;;;9.22;100.00
71970;BME280;59838;52.152;5.436;2024-02-04T09:02:42;102193.53;;;9.23;100.00
71970;BME280;59838;52.152;5.436;2024-02-04T09:05:09;102192.41;;;9.26;100.00
71970;BME280;59838;52.152;5.436;2024-02-04T09:07:35;102185.31;;;9.28;100.00
71970;BME280;59838;52.152;5.436;2024-02-04T09:10:02;102193.09;;;9.28;100.00
71970;BME280;59838;52.152;5.436;2024-02-04T09:12:29;102182.59;;;9.29;100.00
71970;BME280;59838;52.152;5.436;2024-02-04T09:14:56;102185.59;;;9.35;100.00
71970;BME280;59838;52.152;5.436;2024-02-04T09:17:22;102191.31;;;9.38;100.00
71970;BME280;59838;52.152;5.436;2024-02-04T09:19:49;102183.13;;;9.43;100.00
71970;BME280;59838;52.152;5.436;2024-02-04T09:22:16;102192.09;;;9.48;100.00
71970;BME280;59838;52.152;5.436;2024-02-04T09:24:43;102206.44;;;9.52;100.00
71970;BME280;59838;52.152;5.436;2024-02-04T09:27:09;102205.31;;;9.55;100.00
71970;BME280;59838;52.152;5.436;2024-02-04T09:29:36;102209.13;;;9.61;100.00
71970;BME280;59838;52.152;5.436;2024-02-04T09:32:03;102225.22;;;9.64;100.00
71970;BME280;59838;52.152;5.436;2024-02-04T09:34:30;102223.00;;;9.69;100.00
71970;BME280;59838;52.152;5.436;2024-02-04T09:36:56;102221.78;;;9.74;100.00
71970;BME280;59838;52.152;5.436;2024-02-04T09:39:23;102207.41;;;9.79;100.00
71970;BME280;59838;52.152;5.436;2024-02-04T09:41:50;102201.66;;;9.85;100.00
71970;BME280;59838;52.152;5.436;2024-02-04T09:44:17;102197.78;;;9.89;100.00
71970;BME280;59838;52.152;5.436;2024-02-04T09:46:44;102200.78;;;9.95;100.00
71970;BME280;59838;52.152;5.436;2024-02-04T09:49:12;102197.06;;;9.97;100.00
71970;BME280;59838;52.152;5.436;2024-02-04T09:51:40;102202.63;;;10.02;100.00
71970;BME280;59838;52.152;5.436;2024-02-04T09:54:09;102202.06;;;10.09;100.00
71970;BME280;59838;52.152;5.436;2024-02-04T09:56:37;102193.19;;;10.11;100.00
71970;BME280;59838;52.152;5.436;2024-02-04T09:59:04;102204.09;;;10.15;100.00
71970;BME280;59838;52.152;5.436;2024-02-04T10:01:32;102208.31;;;10.16;100.00
71970;BME280;59838;52.152;5.436;2024-02-04T10:03:58;102201.72;;;10.21;100.00
71970;BME280;59838;52.152;5.436;2024-02-04T10:06:25;102198.69;;;10.26;100.00
71970;BME280;59838;52.152;5.436;2024-02-04T10:08:52;102200.19;;;10.29;100.00
71970;BME280;59838;52.152;5.436;2024-02-04T10:11:20;102208.63;;;10.31;100.00
71970;BME280;59838;52.152;5.436;2024-02-04T10:13:48;102206.84;;;10.31;100.00
71970;BME280;59838;52.152;5.436;2024-02-04T10:16:16;102198.94;;;10.33;100.00
71970;BME280;59838;52.152;5.436;2024-02-04T10:18:47;102208.38;;;10.34;100.00
71970;BME280;59838;52.152;5.436;2024-02-04T10:21:20;102209.03;;;10.36;100.00
71970;BME280;59838;52.152;5.436;2024-02-04T10:23:50;102192.66;;;10.35;100.00
71970;BME280;59838;52.152;5.436;2024-02-04T10:26:17;102203.03;;;10.35;100.00
71970;BME280;59838;52.152;5.436;2024-02-04T10:28:47;102207.25;;;10.36;100.00
71970;BME280;59838;52.152;5.436;2024-02-04T10:31:14;102214.25;;;10.36;100.00
71970;BME280;59838;52.152;5.436;2024-02-04T10:33:41;102205.50;;;10.37;100.00
71970;BME280;59838;52.152;5.436;2024-02-04T10:36:08;102197.56;;;10.38;100.00
71970;BME280;59838;52.152;5.436;2024-02-04T10:38:35;102207.81;;;10.40;100.00
71970;BME280;59838;52.152;5.436;2024-02-04T10:41:02;102212.84;;;10.41;100.00
71970;BME280;59838;52.152;5.436;2024-02-04T10:43:33;102219.81;;;10.41;100.00
71970;BME280;59838;52.152;5.436;2024-02-04T10:46:13;102223.91;;;10.43;100.00
71970;BME280;59838;52.152;5.436;2024-02-04T10:48:42;102214.31;;;10.44;100.00
71970;BME280;59838;52.152;5.436;2024-02-04T10:51:13;102221.97;;;10.46;100.00
71970;BME280;59838;52.152;5.436;2024-02-04T10:53:45;102200.22;;;10.47;100.00
71970;BME280;59838;52.152;5.436;2024-02-04T10:56:34;102219.06;;;10.49;100.00
71970;BME280;59838;52.152;5.436;2024-02-04T10:59:03;102210.03;;;10.53;100.00
71970;BME280;59838;52.152;5.436;2024-02-04T11:01:30;102216.41;;;10.58;100.00
71970;BME280;59838;52.152;5.436;2024-02-04T11:03:58;102219.66;;;10.60;100.00
71970;BME280;59838;52.152;5.436;2024-02-04T11:06:26;102210.75;;;10.63;100.00
71970;BME280;59838;52.152;5.436;2024-02-04T11:08:53;102225.22;;;10.66;100.00
71970;BME280;59838;52.152;5.436;2024-02-04T11:11:23;102218.94;;;10.68;100.00
71970;BME280;59838;52.152;5.436;2024-02-04T11:13:54;102223.97;;;10.70;100.00
71970;BME280;59838;52.152;5.436;2024-02-04T11:16:50;102211.44;;;10.65;100.00
71970;BME280;59838;52.152;5.436;2024-02-04T11:19:47;102211.56;;;10.64;100.00
71970;BME280;59838;52.152;5.436;2024-02-04T11:22:42;102220.34;;;10.63;100.00
71970;BME280;59838;52.152;5.436;2024-02-04T11:27:53;102215.44;;;10.59;100.00
71970;BME280;59838;52.152;5.436;2024-02-04T11:30:19;102219.44;;;10.54;100.00
71970;BME280;59838;52.152;5.436;2024-02-04T11:32:46;102206.75;;;10.51;100.00
71970;BME280;59838;52.152;5.436;2024-02-04T11:35:13;102205.44;;;10.47;100.00
71970;BME280;59838;52.152;5.436;2024-02-04T11:37:40;102195.84;;;10.47;100.00
71970;BME280;59838;52.152;5.436;2024-02-04T11:40:14;102184.63;;;10.47;100.00
71970;BME280;59838;52.152;5.436;2024-02-04T11:42:43;102178.09;;;10.42;100.00
71970;BME280;59838;52.152;5.436;2024-02-04T11:45:11;102184.28;;;10.41;100.00
71970;BME280;59838;52.152;5.436;2024-02-04T11:47:39;102182.13;;;10.37;100.00
71970;BME280;59838;52.152;5.436;2024-02-04T11:50:06;102178.00;;;10.34;100.00
71970;BME280;59838;52.152;5.436;2024-02-04T11:52:34;102177.06;;;10.35;100.00
71970;BME280;59838;52.152;5.436;2024-02-04T11:55:00;102185.81;;;10.34;100.00
71970;BME280;59838;52.152;5.436;2024-02-04T11:57:28;102167.63;;;10.34;100.00
71970;BME280;59838;52.152;5.436;2024-02-04T11:59:55;102175.41;;;10.34;100.00
71970;BME280;59838;52.152;5.436;2024-02-04T12:02:22;102174.47;;;10.35;100.00
71970;BME280;59838;52.152;5.436;2024-02-04T12:04:49;102176.91;;;10.37;100.00
71970;BME280;59838;52.152;5.436;2024-02-04T12:07:16;102176.78;;;10.38;100.00
71970;BME280;59838;52.152;5.436;2024-02-04T12:09:43;102171.28;;;10.41;100.00
71970;BME280;59838;52.152;5.436;2024-02-04T12:12:11;102163.78;;;10.38;100.00
71970;BME280;59838;52.152;5.436;2024-02-04T12:14:39;102150.09;;;10.36;100.00
71970;BME280;59838;52.152;5.436;2024-02-04T12:17:10;102146.56;;;10.37;100.00
71970;BME280;59838;52.152;5.436;2024-02-04T12:19:37;102162.66;;;10.41;100.00
71970;BME280;59838;52.152;5.436;2024-02-04T12:22:09;102157.31;;;10.42;100.00
71970;BME280;59838;52.152;5.436;2024-02-04T12:24:36;102144.16;;;10.44;100.00
71970;BME280;59838;52.152;5.436;2024-02-04T12:27:06;102136.22;;;10.46;100.00
71970;BME280;59838;52.152;5.436;2024-02-04T12:29:33;102154.25;;;10.47;100.00
71970;BME280;59838;52.152;5.436;2024-02-04T12:32:01;102135.28;;;10.47;100.00
71970;BME280;59838;52.152;5.436;2024-02-04T12:34:30;102150.72;;;10.48;100.00
71970;BME280;59838;52.152;5.436;2024-02-04T12:37:00;102143.56;;;10.50;100.00
71970;BME280;59838;52.152;5.436;2024-02-04T12:39:28;102144.38;;;10.51;100.00
71970;BME280;59838;52.152;5.436;2024-02-04T12:41:55;102144.22;;;10.52;100.00
71970;BME280;59838;52.152;5.436;2024-02-04T12:44:21;102146.03;;;10.52;100.00
71970;BME280;59838;52.152;5.436;2024-02-04T12:46:51;102161.47;;;10.53;100.00
71970;BME280;59838;52.152;5.436;2024-02-04T12:49:20;102144.38;;;10.51;100.00
71970;BME280;59838;52.152;5.436;2024-02-04T12:51:50;102152.19;;;10.51;100.00
71970;BME280;59838;52.152;5.436;2024-02-04T12:54:22;102143.44;;;10.52;100.00
71970;BME280;59838;52.152;5.436;2024-02-04T12:56:51;102131.25;;;10.52;100.00